Time;durP1;ratioP1;P1;durP2;ratioP2;P2;SDS_P1;SDS_P2;PMS_P1;PMS_P2;Temp;Humidity;BMP_temperature;BMP_pressure;BME280_temperature;BME280_humidity;BME280_pressure;Samples;Min_cycle;Max_cycle;Signal;HPM_P1;HPM_P2
2023/09/27 00:00:00;;;;;;;3.53;3.23;;;;;;;11.83;100.00;96864.97;4992112;28;105205;-73
2023/09/27 00:02:29;;;;;;;3.37;3.17;;;;;;;11.89;100.00;96866.66;4991307;28;105621;-74
2023/09/27 00:04:56;;;;;;;3.73;3.40;;;;;;;11.97;100.00;96864.38;4991927;28;102026;-75
2023/09/27 00:07:23;;;;;;;3.80;3.00;;;;;;;12.04;100.00;96858.88;4993276;28;102636;-75
2023/09/27 00:09:50;;;;;;;4.13;3.50;;;;;;;11.98;100.00;96851.84;4991287;28;105749;-75
2023/09/27 00:12:18;;;;;;;3.80;3.50;;;;;;;11.96;100.00;96854.78;4991607;28;101939;-75
2023/09/27 00:14:45;;;;;;;4.00;3.70;;;;;;;11.93;100.00;96857.13;4991823;28;105490;-75
2023/09/27 00:17:12;;;;;;;4.23;3.87;;;;;;;11.95;100.00;96857.69;4994521;28;104433;-75
2023/09/27 00:19:41;;;;;;;4.40;4.00;;;;;;;11.81;100.00;96856.41;4991736;28;105384;-75
2023/09/27 00:22:09;;;;;;;4.27;3.87;;;;;;;11.79;100.00;96864.69;5007311;28;105458;-75
2023/09/27 00:24:36;;;;;;;4.57;4.13;;;;;;;11.76;100.00;96859.00;4991690;28;102372;-75
2023/09/27 00:27:04;;;;;;;4.27;3.87;;;;;;;11.78;100.00;96849.72;4991690;28;105355;-75
2023/09/27 00:29:31;;;;;;;4.10;3.80;;;;;;;11.83;100.00;96854.31;4974588;28;105039;-76
2023/09/27 00:31:59;;;;;;;3.60;3.30;;;;;;;11.75;100.00;96854.75;4991562;28;101928;-75
2023/09/27 00:34:26;;;;;;;4.27;3.87;;;;;;;11.81;100.00;96854.56;4991074;28;105466;-75
2023/09/27 00:36:54;;;;;;;4.43;3.80;;;;;;;11.79;100.00;96850.53;4990864;28;104183;-75
2023/09/27 00:39:21;;;;;;;3.90;3.60;;;;;;;11.77;100.00;96852.66;4994785;28;102142;-75
2023/09/27 00:41:49;;;;;;;4.10;3.80;;;;;;;11.75;100.00;96849.41;4990876;28;105573;-75
2023/09/27 00:44:15;;;;;;;4.20;3.90;;;;;;;11.75;100.00;96854.75;4991292;28;102164;-75
2023/09/27 00:46:43;;;;;;;3.17;2.97;;;;;;;11.74;100.00;96855.78;4991337;28;104216;-75
2023/09/27 00:49:11;;;;;;;4.10;3.80;;;;;;;11.74;100.00;96858.47;5007130;28;105890;-75
2023/09/27 00:51:39;;;;;;;3.93;3.63;;;;;;;11.72;100.00;96857.91;4991183;28;102114;-75
2023/09/27 00:54:08;;;;;;;4.20;3.80;;;;;;;11.67;100.00;96857.84;4991250;28;105644;-75
2023/09/27 00:56:35;;;;;;;4.10;3.80;;;;;;;11.48;100.00;96859.13;5007163;28;105659;-75
2023/09/27 00:59:03;;;;;;;4.70;4.30;;;;;;;11.58;100.00;96859.25;4994466;28;102083;-75
2023/09/27 01:01:31;;;;;;;3.83;3.50;;;;;;;11.48;100.00;96853.78;4990374;28;105293;-74
2023/09/27 01:03:58;;;;;;;3.10;2.90;;;;;;;11.44;100.00;96848.16;4990077;28;101974;-74
2023/09/27 01:06:26;;;;;;;3.17;2.97;;;;;;;11.52;100.00;96844.25;4991040;28;105692;-75
2023/09/27 01:08:53;;;;;;;5.80;4.97;;;;;;;11.62;100.00;96844.44;4990375;28;105524;-75
2023/09/27 01:11:21;;;;;;;5.13;4.67;;;;;;;11.54;100.00;96848.28;4990904;28;101903;-75
2023/09/27 01:13:50;;;;;;;4.43;4.10;;;;;;;11.58;100.00;96846.75;4991882;28;102775;-75
2023/09/27 01:16:16;;;;;;;5.20;4.70;;;;;;;11.54;100.00;96850.13;4990273;28;105496;-75
2023/09/27 01:18:43;;;;;;;5.60;4.80;;;;;;;11.62;100.00;96849.78;4991087;28;102286;-75
2023/09/27 01:21:10;;;;;;;6.73;4.83;;;;;;;11.60;100.00;96846.53;4993440;28;105295;-75
2023/09/27 01:23:41;;;;;;;5.87;5.27;;;;;;;11.64;100.00;96842.31;4990933;28;102274;-75
2023/09/27 01:26:11;;;;;;;5.30;4.80;;;;;;;11.65;100.00;96843.94;5007314;28;105367;-75
2023/09/27 01:28:41;;;;;;;5.30;4.80;;;;;;;11.64;100.00;96842.31;4990128;28;105375;-75
2023/09/27 01:31:08;;;;;;;6.57;5.87;;;;;;;11.69;100.00;96831.75;4990736;28;101980;-75
2023/09/27 01:33:35;;;;;;;5.57;5.07;;;;;;;11.62;100.00;96837.25;4990528;28;105551;-75
2023/09/27 01:36:03;;;;;;;7.87;6.23;;;;;;;11.54;100.00;96834.97;4989525;28;104360;-74
2023/09/27 01:38:30;;;;;;;6.83;6.03;;;;;;;11.55;100.00;96835.78;4991959;28;101830;-74
2023/09/27 01:40:59;;;;;;;6.73;6.03;;;;;;;11.60;100.00;96839.34;4990630;28;105255;-74
2023/09/27 01:43:26;;;;;;;6.87;6.03;;;;;;;11.65;100.00;96834.09;4993112;28;105765;-74
2023/09/27 01:45:53;;;;;;;6.33;5.80;;;;;;;11.54;100.00;96840.31;4990547;28;104011;-74
2023/09/27 01:48:21;;;;;;;7.13;6.33;;;;;;;11.47;100.00;96833.53;4989582;28;105531;-75
2023/09/27 01:50:49;;;;;;;6.50;5.90;;;;;;;11.49;100.00;96834.91;4990336;28;101891;-75
2023/09/27 01:53:17;;;;;;;7.07;6.40;;;;;;;11.56;100.00;96835.53;4990311;28;105489;-75
2023/09/27 01:55:44;;;;;;;7.10;6.50;;;;;;;11.55;100.00;96835.78;4989562;28;105310;-75
2023/09/27 01:58:12;;;;;;;7.20;6.50;;;;;;;11.52;100.00;96834.44;4990087;28;101963;-75
2023/09/27 02:00:39;;;;;;;7.47;6.77;;;;;;;11.56;100.00;96830.19;4990089;28;106387;-75
2023/09/27 02:03:06;;;;;;;8.77;7.20;;;;;;;11.63;100.00;96840.72;4972737;28;105775;-75
2023/09/27 02:05:33;;;;;;;8.37;7.57;;;;;;;11.66;100.00;96835.69;4995120;28;102149;-74
2023/09/27 02:08:00;;;;;;;7.37;6.77;;;;;;;11.70;100.00;96844.00;4989594;28;105908;-74
2023/09/27 02:10:28;;;;;;;7.20;6.57;;;;;;;11.68;100.00;96833.63;4990068;28;101887;-76
2023/09/27 02:12:55;;;;;;;6.77;6.17;;;;;;;11.68;100.00;96838.94;4989894;28;104032;-75
2023/09/27 02:15:23;;;;;;;8.20;7.40;;;;;;;11.57;100.00;96831.03;4988103;28;105139;-75
2023/09/27 02:17:50;;;;;;;6.63;6.03;;;;;;;11.61;100.00;96832.19;5006252;28;101900;-75
2023/09/27 02:20:18;;;;;;;6.40;5.70;;;;;;;11.60;100.00;96830.53;4989774;28;105630;-75
2023/09/27 02:22:47;;;;;;;6.57;6.07;;;;;;;11.51;100.00;96838.13;4989266;28;104407;-75
2023/09/27 02:25:15;;;;;;;5.90;5.37;;;;;;;11.54;100.00;96837.66;4989765;28;101947;-75
2023/09/27 02:27:42;;;;;;;7.17;6.57;;;;;;;11.54;100.00;96836.81;4992578;28;105156;-74
2023/09/27 02:30:12;;;;;;;6.90;6.20;;;;;;;11.50;100.00;96831.19;4989715;28;101927;-75
2023/09/27 02:32:45;;;;;;;7.10;6.40;;;;;;;11.52;100.00;96833.63;4989405;28;104990;-75
2023/09/27 02:35:13;;;;;;;7.10;6.50;;;;;;;11.47;100.00;96834.34;4988574;28;104293;-75
2023/09/27 02:37:42;;;;;;;6.47;5.97;;;;;;;11.51;100.00;96827.47;4990834;28;101885;-74
2023/09/27 02:40:12;;;;;;;7.03;6.43;;;;;;;11.51;100.00;96835.44;4990867;28;102997;-74
2023/09/27 02:42:40;;;;;;;6.27;5.77;;;;;;;11.47;100.00;96825.53;4989064;28;106244;-74
2023/09/27 02:45:09;;;;;;;7.50;6.70;;;;;;;11.49;100.00;96831.41;4989383;28;102014;-74
2023/09/27 02:47:36;;;;;;;7.37;6.67;;;;;;;11.46;100.00;96829.25;4989566;28;105118;-74
2023/09/27 02:50:06;;;;;;;6.77;6.17;;;;;;;11.41;100.00;96822.03;4992037;28;102033;-74
2023/09/27 02:52:33;;;;;;;5.93;5.43;;;;;;;11.38;100.00;96821.69;4989380;28;105193;-74
2023/09/27 02:55:00;;;;;;;6.80;6.20;;;;;;;11.35;100.00;96827.50;4988624;28;105654;-74
2023/09/27 02:57:27;;;;;;;6.60;6.00;;;;;;;11.33;100.00;96818.97;5005916;28;102161;-74
2023/09/27 02:59:55;;;;;;;6.53;5.93;;;;;;;11.22;100.00;96822.50;4989276;28;105365;-74
2023/09/27 03:02:23;;;;;;;5.97;5.47;;;;;;;11.22;100.00;96822.50;4988587;28;105545;-74
2023/09/27 03:04:50;;;;;;;6.43;5.90;;;;;;;11.24;100.00;96815.09;4990548;28;102034;-74
2023/09/27 03:07:18;;;;;;;6.90;6.20;;;;;;;11.20;100.00;96824.63;4989105;28;105149;-74
2023/09/27 03:09:47;;;;;;;7.30;6.70;;;;;;;11.24;100.00;96826.53;4991949;28;105663;-74
2023/09/27 03:12:14;;;;;;;6.57;5.90;;;;;;;11.20;100.00;96819.28;4988975;28;105581;-75
2023/09/27 03:14:41;;;;;;;6.70;6.07;;;;;;;11.07;100.00;96820.41;4988291;28;105479;-74
2023/09/27 03:17:09;;;;;;;7.53;6.77;;;;;;;11.08;100.00;96818.56;4988957;28;101952;-74
2023/09/27 03:19:36;;;;;;;7.07;6.47;;;;;;;11.12;100.00;96823.16;4988954;28;105236;-73
2023/09/27 03:22:03;;;;;;;6.87;6.27;;;;;;;11.15;100.00;96822.69;4988164;28;105400;-73
2023/09/27 03:24:34;;;;;;;8.37;7.30;;;;;;;11.16;100.00;96818.16;4988875;28;101880;-74
2023/09/27 03:27:03;;;;;;;7.80;7.10;;;;;;;11.21;100.00;96821.72;5005084;28;105233;-74
2023/09/27 03:29:32;;;;;;;7.30;6.60;;;;;;;11.07;100.00;96824.94;4988257;28;105190;-74
2023/09/27 03:32:00;;;;;;;6.60;6.00;;;;;;;11.09;100.00;96822.84;4992313;28;102060;-74
2023/09/27 03:34:27;;;;;;;6.50;5.97;;;;;;;11.10;100.00;96829.78;5004175;28;105084;-74
2023/09/27 03:36:57;;;;;;;6.47;5.87;;;;;;;11.09;100.00;96834.31;4988836;28;101865;-74
2023/09/27 03:39:28;;;;;;;6.30;5.70;;;;;;;11.06;100.00;96839.31;4988760;28;105486;-74
2023/09/27 03:41:57;;;;;;;6.30;5.80;;;;;;;11.07;100.00;96827.63;4987949;28;105854;-74
2023/09/27 03:44:26;;;;;;;6.17;5.67;;;;;;;11.06;100.00;96834.78;4989797;28;101812;-74
2023/09/27 03:46:53;;;;;;;6.23;5.73;;;;;;;11.07;100.00;96831.06;4988835;28;105297;-75
2023/09/27 03:49:20;;;;;;;6.17;5.60;;;;;;;11.08;100.00;96837.22;4987969;28;105571;-74
2023/09/27 03:51:47;;;;;;;6.10;5.60;;;;;;;10.99;100.00;96833.31;4988485;28;102080;-74
2023/09/27 03:54:14;;;;;;;7.50;6.37;;;;;;;11.02;100.00;96848.81;4991390;28;104993;-74
2023/09/27 03:56:41;;;;;;;6.23;5.73;;;;;;;10.97;100.00;96849.53;4988516;28;101990;-74
2023/09/27 03:59:10;;;;;;;7.67;6.87;;;;;;;11.00;100.00;96840.25;4988345;28;105374;-75
2023/09/27 04:01:37;;;;;;;6.80;6.10;;;;;;;10.91;100.00;96839.84;4987851;28;105165;-75
2023/09/27 04:04:05;;;;;;;6.90;5.90;;;;;;;10.95;100.00;96845.53;4988422;28;101947;-75
2023/09/27 04:06:32;;;;;;;6.80;6.20;;;;;;;10.95;100.00;96834.88;4988389;28;105220;-75
2023/09/27 04:08:59;;;;;;;7.20;6.53;;;;;;;10.98;100.00;96837.03;4987783;28;105714;-75
2023/09/27 04:11:26;;;;;;;7.87;7.10;;;;;;;11.02;100.00;96830.19;4988045;28;102032;-75
2023/09/27 04:13:52;;;;;;;7.93;7.23;;;;;;;11.10;100.00;96846.56;4987985;28;105533;-75
2023/09/27 04:16:21;;;;;;;7.83;7.13;;;;;;;11.09;100.00;96844.97;4991038;28;106096;-75
2023/09/27 04:18:48;;;;;;;8.93;8.10;;;;;;;11.10;100.00;96843.91;4988260;28;105537;-75
2023/09/27 04:21:15;;;;;;;7.27;6.63;;;;;;;11.06;100.00;96844.63;4989068;28;103230;-75
2023/09/27 04:23:42;;;;;;;6.90;6.30;;;;;;;11.00;100.00;96848.25;4987927;28;101882;-75
2023/09/27 04:26:09;;;;;;;7.23;6.53;;;;;;;10.96;100.00;96847.13;4988246;28;105722;-75
2023/09/27 04:28:36;;;;;;;6.40;5.90;;;;;;;11.03;100.00;96855.75;4987425;28;104213;-76
2023/09/27 04:31:03;;;;;;;7.33;6.70;;;;;;;11.07;100.00;96856.88;4988210;28;101975;-76
2023/09/27 04:33:32;;;;;;;7.63;6.93;;;;;;;11.12;100.00;96856.97;4988053;28;104888;-76
2023/09/27 04:35:59;;;;;;;7.80;7.00;;;;;;;11.13;100.00;96861.25;4986872;28;105468;-76
2023/09/27 04:38:26;;;;;;;7.90;7.20;;;;;;;11.17;100.00;96868.50;4992183;28;101897;-77
2023/09/27 04:40:53;;;;;;;7.50;6.80;;;;;;;11.17;100.00;96879.13;4990537;28;105828;-77
2023/09/27 04:43:20;;;;;;;8.87;8.07;;;;;;;11.25;100.00;96877.94;4991146;28;102214;-77
2023/09/27 04:45:48;;;;;;;10.90;8.70;;;;;;;11.26;100.00;96883.03;4992606;28;102567;-77
2023/09/27 04:48:15;;;;;;;9.07;8.27;;;;;;;11.26;100.00;96884.88;4990491;28;105418;-77
2023/09/27 04:50:44;;;;;;;10.43;9.33;;;;;;;11.26;100.00;96892.84;4992430;28;101839;-77
2023/09/27 04:53:11;;;;;;;8.43;7.73;;;;;;;11.13;100.00;96887.88;4991024;28;105548;-77
2023/09/27 04:55:38;;;;;;;8.50;7.70;;;;;;;11.04;100.00;96902.59;4990399;28;104258;-77
2023/09/27 04:58:06;;;;;;;14.23;7.50;;;;;;;10.96;100.00;96903.00;4994244;28;101837;-77
2023/09/27 05:00:32;;;;;;;10.33;6.87;;;;;;;10.84;100.00;96910.25;5006950;28;105329;-77
2023/09/27 05:02:59;;;;;;;13.17;6.80;;;;;;;10.62;100.00;96919.94;4991040;28;101957;-77
2023/09/27 05:05:26;;;;;;;22.20;5.97;;;;;;;10.48;100.00;96923.91;4990871;28;105573;-77
2023/09/27 05:07:55;;;;;;;23.23;6.10;;;;;;;10.22;100.00;96929.78;5006926;28;105943;-76
2023/09/27 05:10:22;;;;;;;8.00;6.30;;;;;;;10.27;100.00;96929.88;4990481;28;102063;-76
2023/09/27 05:12:48;;;;;;;6.43;5.83;;;;;;;10.35;100.00;96934.84;5007309;28;104970;-76
2023/09/27 05:15:16;;;;;;;6.33;5.73;;;;;;;10.45;100.00;96929.69;5006700;28;105360;-77
2023/09/27 05:17:43;;;;;;;6.80;6.20;;;;;;;10.58;100.00;96927.56;4990620;28;102005;-76
2023/09/27 05:20:11;;;;;;;6.40;5.90;;;;;;;10.61;100.00;96936.94;4993593;28;105164;-77
2023/09/27 05:22:38;;;;;;;6.43;5.90;;;;;;;10.59;100.00;96934.53;4992004;28;101863;-76
2023/09/27 05:25:08;;;;;;;8.00;6.10;;;;;;;10.63;100.00;96933.00;4990502;28;105497;-77
2023/09/27 05:27:35;;;;;;;5.37;4.97;;;;;;;10.66;100.00;96929.06;4990138;28;105916;-76
2023/09/27 05:30:03;;;;;;;5.47;5.07;;;;;;;10.74;100.00;96920.72;4991912;28;102192;-76
2023/09/27 05:32:30;;;;;;;6.10;5.50;;;;;;;10.82;100.00;96929.09;4990572;28;105167;-77
2023/09/27 05:34:57;;;;;;;6.47;5.70;;;;;;;10.87;100.00;96926.53;4989504;28;104878;-76
2023/09/27 05:37:24;;;;;;;6.50;5.90;;;;;;;11.02;100.00;96923.34;4990445;28;101956;-74
2023/09/27 05:39:51;;;;;;;7.20;6.53;;;;;;;11.09;100.00;96923.97;4990042;28;105656;-74
2023/09/27 05:42:19;;;;;;;6.40;5.90;;;;;;;11.17;100.00;96924.41;5009859;28;105222;-74
2023/09/27 05:44:46;;;;;;;6.50;6.00;;;;;;;11.11;100.00;96927.19;4990231;28;105504;-74
2023/09/27 05:47:13;;;;;;;6.23;5.63;;;;;;;11.13;100.00;96927.78;5006216;28;106006;-73
2023/09/27 05:49:42;;;;;;;6.00;5.50;;;;;;;11.10;100.00;96930.91;4990029;28;101962;-73
2023/09/27 05:52:12;;;;;;;5.20;4.70;;;;;;;11.24;100.00;96934.91;4990142;28;105644;-73
2023/09/27 05:54:39;;;;;;;5.77;5.37;;;;;;;11.37;100.00;96937.22;4989482;28;105664;-73
2023/09/27 05:57:06;;;;;;;6.93;6.33;;;;;;;11.49;100.00;96936.13;4990114;28;102089;-73
2023/09/27 05:59:35;;;;;;;7.33;6.00;;;;;;;11.59;100.00;96943.47;4989939;28;105031;-73
2023/09/27 06:02:03;;;;;;;7.10;6.50;;;;;;;11.62;100.00;96956.31;4989391;28;105812;-73
2023/09/27 06:04:30;;;;;;;6.43;5.90;;;;;;;11.56;100.00;96951.94;4993196;28;101946;-73
2023/09/27 06:06:58;;;;;;;6.43;5.93;;;;;;;11.46;100.00;96954.44;4989413;28;105876;-73
2023/09/27 06:09:25;;;;;;;6.10;5.53;;;;;;;11.49;100.00;96957.41;4989741;28;101990;-73
2023/09/27 06:11:52;;;;;;;5.13;4.73;;;;;;;11.59;100.00;96954.94;4990112;28;105330;-73
2023/09/27 06:14:21;;;;;;;6.57;5.97;;;;;;;11.68;100.00;96955.34;4989048;28;106189;-73
2023/09/27 06:16:50;;;;;;;7.00;6.20;;;;;;;11.77;100.00;96953.91;4989785;28;101977;-73
2023/09/27 06:19:17;;;;;;;6.60;6.10;;;;;;;11.91;100.00;96958.66;4989762;28;105522;-73
2023/09/27 06:21:44;;;;;;;7.07;6.47;;;;;;;12.01;100.00;96956.13;4989357;28;104434;-73
2023/09/27 06:24:12;;;;;;;7.07;6.47;;;;;;;12.09;100.00;96960.22;4989665;28;102007;-74
2023/09/27 06:26:41;;;;;;;7.43;6.83;;;;;;;12.12;100.00;96959.72;4992527;28;105227;-73
2023/09/27 06:29:09;;;;;;;7.60;7.00;;;;;;;12.16;100.00;96958.97;4989786;28;101811;-73
2023/09/27 06:31:35;;;;;;;8.47;7.70;;;;;;;12.26;100.00;96958.34;4989748;28;104910;-73
2023/09/27 06:36:34;;;;;;;6.70;6.20;;;;;;;12.41;100.00;96959.31;5111997;27;101722;-73
2023/09/27 06:39:01;;;;;;;7.73;7.10;;;;;;;12.45;100.00;96956.97;5085854;27;105581;-73
2023/09/27 06:41:28;;;;;;;7.10;6.50;;;;;;;12.45;100.00;96964.97;5086639;27;102019;-73
2023/09/27 06:43:55;;;;;;;7.40;6.70;;;;;;;12.52;100.00;96971.75;5088117;27;103038;-73
2023/09/27 06:46:22;;;;;;;7.10;6.60;;;;;;;12.80;100.00;96981.44;5085886;27;105593;-73
2023/09/27 06:48:49;;;;;;;7.77;7.07;;;;;;;13.00;100.00;96973.66;5086609;27;101819;-73
2023/09/27 06:51:16;;;;;;;7.40;6.80;;;;;;;13.17;100.00;96977.84;5086590;27;105262;-73
2023/09/27 06:53:44;;;;;;;7.70;7.10;;;;;;;13.27;100.00;96975.28;5085746;27;105468;-73
2023/09/27 06:56:11;;;;;;;7.10;6.60;;;;;;;13.32;100.00;96979.84;5089901;27;101931;-73
2023/09/27 06:58:38;;;;;;;6.97;6.43;;;;;;;13.28;100.00;96984.91;5085946;27;105268;-73
2023/09/27 07:01:05;;;;;;;7.40;6.80;;;;;;;13.39;100.00;96988.47;5086183;27;102007;-73
2023/09/27 07:03:34;;;;;;;7.33;6.73;;;;;;;13.49;100.00;96985.88;5086417;27;105276;-73
2023/09/27 07:06:02;;;;;;;6.70;6.20;;;;;;;13.59;100.00;96985.97;5085602;27;105456;-73
2023/09/27 07:08:29;;;;;;;7.20;6.70;;;;;;;13.79;100.00;96986.16;5086155;27;101887;-73
2023/09/27 07:11:05;;;;;;;7.17;6.47;;;;;;;13.93;100.00;96984.66;5086254;27;104818;-73
2023/09/27 07:13:32;;;;;;;7.43;6.77;;;;;;;14.09;100.00;96976.47;5085476;27;105178;-73
2023/09/27 07:15:59;;;;;;;7.33;6.73;;;;;;;14.11;100.00;96973.56;5086056;27;102011;-73
2023/09/27 07:18:26;;;;;;;6.83;6.23;;;;;;;14.40;100.00;96972.13;5088923;27;105326;-73
2023/09/27 07:20:54;;;;;;;6.70;6.10;;;;;;;14.58;100.00;96969.00;5085828;27;101901;-73
2023/09/27 07:23:21;;;;;;;6.87;6.20;;;;;;;14.79;100.00;96973.38;5086212;27;105162;-73
2023/09/27 07:25:48;;;;;;;8.93;6.53;;;;;;;14.86;100.00;96972.06;5085239;27;105348;-73
2023/09/27 07:28:16;;;;;;;6.07;5.57;;;;;;;15.09;100.00;96965.44;5087392;27;101898;-73
2023/09/27 07:30:44;;;;;;;7.47;6.37;;;;;;;15.24;100.00;96968.97;5086015;27;104068;-73
2023/09/27 07:33:11;;;;;;;6.90;6.30;;;;;;;15.19;100.00;96966.25;5085260;27;106443;-73
2023/09/27 07:35:42;;;;;;;6.60;5.63;;;;;;;15.05;100.00;96970.50;5085229;27;102445;-73
2023/09/27 07:38:10;;;;;;;7.47;6.07;;;;;;;15.27;100.00;96978.34;5087352;27;102675;-73
2023/09/27 07:40:37;;;;;;;6.60;6.00;;;;;;;15.49;100.00;96976.25;5088600;27;105723;-73
2023/09/27 07:43:04;;;;;;;6.20;5.60;;;;;;;15.65;100.00;96970.63;5085740;27;103987;-73
2023/09/27 07:45:36;;;;;;;5.57;5.00;;;;;;;15.84;100.00;96969.03;5084871;27;105441;-73
2023/09/27 07:48:03;;;;;;;6.10;5.50;;;;;;;15.75;100.00;96970.63;5071520;27;102200;-73
2023/09/27 07:50:31;;;;;;;5.97;5.33;;;;;;;15.91;100.00;96966.88;5071702;27;105545;-73
2023/09/27 07:52:58;;;;;;;6.23;5.23;;;;;;;16.01;100.00;96958.00;5071285;27;105447;-73
2023/09/27 07:59:12;;;;;;;6.23;5.07;;;;;;;16.61;100.00;96963.25;5070527;27;101902;-73
2023/09/27 08:01:41;;;;;;;5.47;4.97;;;;;;;16.62;100.00;96954.94;5070987;27;105506;-73
2023/09/27 08:04:12;;;;;;;5.70;5.20;;;;;;;16.78;100.00;96958.38;5075048;27;102011;-73
2023/09/27 08:06:39;;;;;;;7.57;5.27;;;;;;;16.94;100.00;96949.16;5072571;27;101837;-75
2023/09/27 08:09:06;;;;;;;8.83;4.80;;;;;;;17.36;100.00;96949.44;5071539;27;101919;-77
2023/09/27 08:11:33;;;;;;;5.63;4.20;;;;;;;17.33;100.00;96940.03;5071485;27;105844;-73
2023/09/27 08:14:00;;;;;;;6.93;4.70;;;;;;;17.38;100.00;96949.97;5070642;27;105490;-73
2023/09/27 08:16:27;;;;;;;8.37;4.87;;;;;;;17.71;100.00;96943.84;5071364;27;102042;-73
2023/09/27 08:18:56;;;;;;;6.10;4.50;;;;;;;18.13;100.00;96938.59;5071134;27;105155;-73
2023/09/27 08:21:23;;;;;;;5.43;4.20;;;;;;;18.38;100.00;96941.88;5070848;27;105632;-73
2023/09/27 08:23:52;;;;;;;5.23;4.33;;;;;;;18.35;100.00;96936.22;5071170;27;102014;-73
2023/09/27 08:26:20;;;;;;;8.67;4.80;;;;;;;18.35;100.00;96934.34;5074094;27;105470;-73
2023/09/27 08:28:46;;;;;;;5.07;4.57;;;;;;;18.30;100.00;96934.38;5071263;27;101963;-73
2023/09/27 08:31:14;;;;;;;6.23;4.40;;;;;;;18.60;100.00;96930.56;5071216;27;105057;-73
2023/09/27 08:33:41;;;;;;;5.80;5.23;;;;;;;18.58;100.00;96935.47;5070428;27;105768;-73
2023/09/27 08:36:09;;;;;;;10.47;5.73;;;;;;;18.72;100.00;96936.34;5070708;27;101940;-73
2023/09/27 08:38:36;;;;;;;5.57;5.07;;;;;;;19.03;100.00;96932.19;5071209;27;105417;-73
2023/09/27 08:41:04;;;;;;;11.37;5.80;;;;;;;19.21;100.00;96936.78;5070711;27;105390;-73
2023/09/27 08:43:33;;;;;;;6.97;5.23;;;;;;;19.22;100.00;96938.41;5070886;27;101913;-73
2023/09/27 08:46:02;;;;;;;5.00;4.60;;;;;;;19.29;100.00;96930.78;5070945;27;105813;-73
2023/09/27 08:48:29;;;;;;;7.57;4.63;;;;;;;19.33;100.00;96935.28;5074825;27;101995;-73
2023/09/27 08:50:58;;;;;;;4.70;4.20;;;;;;;19.53;100.00;96920.69;5072191;27;102845;-73
2023/09/27 08:53:26;;;;;;;5.03;4.33;;;;;;;19.49;100.00;96925.06;5071592;27;102755;-73
2023/09/27 08:55:54;;;;;;;5.57;4.57;;;;;;;19.58;100.00;96921.41;5070857;27;102037;-73
2023/09/27 08:58:24;;;;;;;5.03;4.33;;;;;;;19.49;100.00;96923.16;5069930;27;105679;-73
2023/09/27 09:00:52;;;;;;;8.33;4.63;;;;;;;19.91;100.00;96917.63;5070203;27;105650;-73
2023/09/27 09:03:19;;;;;;;7.93;5.20;;;;;;;19.92;100.00;96910.31;5070609;27;101935;-73
2023/09/27 09:05:48;;;;;;;7.87;4.40;;;;;;;20.01;100.00;96905.84;5070588;27;105177;-73
2023/09/27 09:08:15;;;;;;;5.00;4.30;;;;;;;20.08;100.00;96900.88;5073443;27;105554;-73
2023/09/27 09:10:44;;;;;;;4.33;3.90;;;;;;;20.36;100.00;96905.19;5070829;27;105668;-73
2023/09/27 09:13:11;;;;;;;5.50;3.93;;;;;;;20.62;100.00;96903.59;5069835;27;104116;-73
2023/09/27 09:15:41;;;;;;;4.77;3.87;;;;;;;20.06;100.00;96903.03;5070554;27;101970;-73
2023/09/27 09:18:12;;;;;;;8.00;4.87;;;;;;;19.87;100.00;96905.00;5070303;27;104071;-73
2023/09/27 09:20:51;;;;;;;4.07;3.67;;;;;;;19.81;100.00;96898.09;5069773;27;105114;-73
2023/09/27 09:23:29;;;;;;;4.67;3.80;;;;;;;20.37;100.00;96901.38;5070515;27;101839;-73
2023/09/27 09:25:58;;;;;;;4.10;3.70;;;;;;;19.64;100.00;96895.13;5070423;27;105684;-73
2023/09/27 09:28:26;;;;;;;5.50;3.80;;;;;;;20.61;100.00;96900.09;5069588;27;106084;-73
2023/09/27 09:30:54;;;;;;;5.07;3.67;;;;;;;20.95;100.00;96895.09;5073822;27;101980;-73
2023/09/27 09:33:22;;;;;;;5.00;3.90;;;;;;;20.53;100.00;96900.81;5069511;27;104241;-72
2023/09/27 09:35:50;;;;;;;4.47;3.50;;;;;;;20.16;100.00;96902.91;5069833;27;101943;-73
2023/09/27 09:38:25;;;;;;;6.20;3.70;;;;;;;20.31;100.00;96899.88;5070091;27;105536;-73
2023/09/27 09:40:53;;;;;;;4.47;3.60;;;;;;;20.21;100.00;96894.72;5071003;27;102964;-72
2023/09/27 09:43:31;;;;;;;4.50;3.30;;;;;;;20.47;100.00;96898.50;5070095;27;101955;-73
2023/09/27 09:46:00;;;;;;;4.53;3.53;;;;;;;20.57;100.00;96895.59;5069892;27;105307;-73
2023/09/27 09:48:27;;;;;;;5.27;3.70;;;;;;;20.48;100.00;96892.03;5069325;27;105087;-73
2023/09/27 09:51:03;;;;;;;5.63;3.87;;;;;;;20.49;100.00;96888.22;5071284;27;101885;-73
2023/09/27 09:53:30;;;;;;;4.03;3.60;;;;;;;20.44;100.00;96896.41;5072794;27;105283;-72
2023/09/27 09:56:00;;;;;;;4.13;3.57;;;;;;;21.07;100.00;96894.56;5069895;27;102000;-72
2023/09/27 09:58:33;;;;;;;4.20;3.70;;;;;;;20.74;100.00;96891.19;5069816;27;105551;-73
2023/09/27 10:01:03;;;;;;;3.90;3.53;;;;;;;20.98;100.00;96899.88;5068835;27;105928;-73
2023/09/27 10:03:32;;;;;;;6.23;4.33;;;;;;;21.24;100.00;96889.28;5069735;27;101966;-73
2023/09/27 10:06:01;;;;;;;4.67;4.27;;;;;;;20.66;100.00;96891.09;5069819;27;103921;-73
2023/09/27 10:08:34;;;;;;;5.40;4.53;;;;;;;20.83;100.00;96891.28;5069148;27;105107;-73
2023/09/27 10:11:04;;;;;;;7.87;3.60;;;;;;;20.98;100.00;96883.66;5069327;27;102273;-73
2023/09/27 10:13:35;;;;;;;4.50;4.00;;;;;;;20.82;100.00;96881.56;5070920;27;102593;-72
2023/09/27 10:16:03;;;;;;;4.47;3.90;;;;;;;21.16;100.00;96887.31;5072252;27;104389;-73
2023/09/27 10:18:36;;;;;;;4.27;3.87;;;;;;;20.96;100.00;96879.66;5069503;27;105278;-73
2023/09/27 12:23:45;;;;;;;3.10;2.90;;;;;;;27.30;100.00;96694.84;5066922;27;102528;-73
2023/09/27 12:26:14;;;;;;;3.57;3.27;;;;;;;27.34;100.00;96688.31;5023061;28;102107;-73
2023/09/27 12:28:41;;;;;;;5.87;2.80;;;;;;;27.30;100.00;96679.22;5013628;28;105685;-73
2023/09/27 12:31:08;;;;;;;3.10;2.83;;;;;;;27.78;100.00;96681.69;5016551;28;105662;-73
2023/09/27 12:33:37;;;;;;;4.40;2.90;;;;;;;27.52;100.00;96669.66;5029088;27;105176;-73
2023/09/27 12:36:04;;;;;;;2.67;2.47;;;;;;;27.37;100.00;96662.25;5013241;28;103950;-73
2023/09/27 12:38:31;;;;;;;2.77;2.37;;;;;;;27.52;100.00;96664.22;5013883;28;102081;-73
2023/09/27 12:41:00;;;;;;;3.78;2.78;;;;;;;27.70;100.00;96652.56;5032190;28;102856;-73
2023/09/27 12:43:28;;;;;;;3.08;2.33;;;;;;;28.04;100.00;96653.78;5030186;28;105609;-73
2023/09/27 12:45:55;;;;;;;2.50;2.30;;;;;;;28.33;100.00;96651.34;5013790;28;102126;-73
2023/09/27 12:48:22;;;;;;;2.70;2.30;;;;;;;28.48;100.00;96650.53;5013983;28;104213;-73
2023/09/27 12:50:49;;;;;;;2.65;2.45;;;;;;;28.35;100.00;96642.78;5031486;28;103162;-73
2023/09/27 12:53:16;;;;;;;2.60;2.17;;;;;;;28.64;100.00;96639.53;5017215;28;102164;-73
2023/09/27 12:55:43;;;;;;;3.85;2.67;;;;;;;28.52;100.00;96628.72;5013138;28;105467;-73
2023/09/27 12:58:12;;;;;;;2.60;2.40;;;;;;;28.42;100.00;96626.56;5013480;28;102022;-73
2023/09/27 13:00:41;;;;;;;4.20;2.53;;;;;;;28.56;100.00;96619.44;5012894;28;105228;-73
2023/09/27 13:03:08;;;;;;;3.47;2.70;;;;;;;28.16;100.00;96609.94;5012949;28;105448;-73
2023/09/27 13:05:36;;;;;;;3.58;2.60;;;;;;;28.02;100.00;96606.88;5013309;28;101979;-73
2023/09/27 13:08:04;;;;;;;2.60;2.40;;;;;;;28.54;100.00;96605.31;5013813;28;105625;-73
2023/09/27 13:10:34;;;;;;;3.65;2.83;;;;;;;28.64;100.00;96604.75;5012833;28;105507;-73
2023/09/27 13:13:01;;;;;;;2.70;2.22;;;;;;;28.91;100.00;96597.44;5013451;28;101907;-73
2023/09/27 13:15:28;;;;;;;2.50;2.30;;;;;;;28.75;100.00;96596.75;5016162;28;105622;-73
2023/09/27 13:17:57;;;;;;;2.60;2.40;;;;;;;28.89;100.00;96594.28;5013141;28;101934;-73
2023/09/27 13:20:24;;;;;;;4.78;2.15;;;;;;;28.75;100.00;96586.59;5013025;28;104139;-73
2023/09/27 13:22:51;;;;;;;5.03;2.10;;;;;;;29.15;100.00;96586.22;5012604;28;105364;-73
2023/09/27 13:25:18;;;;;;;2.50;2.28;;;;;;;28.90;100.00;96584.91;5012450;28;102093;-73
2023/09/27 13:27:46;;;;;;;3.40;2.50;;;;;;;28.91;100.00;96579.09;5011685;28;105199;-73